Time;durP1;ratioP1;P1;durP2;ratioP2;P2;SDS_P1;SDS_P2;PMS_P1;PMS_P2;Temp;Humidity;BMP_temperature;BMP_pressure;BME280_temperature;BME280_humidity;BME280_pressure;Samples;Min_cycle;Max_cycle;Signal;HPM_P1;HPM_P2
2022/01/18 00:00:08;;;;;;;;;;;21.50;40.90;;;;;;699381;28;1236;-92
2022/01/18 00:00:29;;;;;;;;;;;21.60;41.00;;;;;;696567;28;1337;-91
2022/01/18 00:00:50;;;;;;;;;;;21.60;41.00;;;;;;693950;28;1324;-92
2022/01/18 00:01:11;;;;;;;;;;;21.50;40.80;;;;;;694080;28;1410;-91
2022/01/18 00:01:31;;;;;;;;;;;21.60;40.80;;;;;;691222;28;1269;-89
2022/01/18 00:01:52;;;;;;;;;;;21.60;40.90;;;;;;689028;28;827;-92
2022/01/18 00:02:13;;;;;;;;;;;21.60;40.80;;;;;;691580;28;1328;-88
2022/01/18 00:02:33;;;;;;;;;;;21.50;40.80;;;;;;693938;28;1379;-85
2022/01/18 00:02:55;;;;;;;;;;;21.50;40.80;;;;;;693867;28;1172;-91
2022/01/18 00:03:16;;;;;;;;;;;21.50;40.80;;;;;;694414;28;842;-92
2022/01/18 00:03:36;;;;;;;;;;;21.60;40.90;;;;;;697137;28;910;-92
2022/01/18 00:03:57;;;;;;;;;;;21.60;40.90;;;;;;696300;28;1318;-92
2022/01/18 00:04:18;;;;;;;;;;;21.50;40.80;;;;;;691545;28;873;-89
2022/01/18 00:04:39;;;;;;;;;;;21.50;40.80;;;;;;694274;28;818;-92
2022/01/18 00:04:59;;;;;;;;;;;21.50;40.70;;;;;;696751;28;889;-88
2022/01/18 00:05:20;;;;;;;;;;;21.60;42.00;;;;;;696646;28;1322;-91
2022/01/18 00:05:45;;;;;;;;;;;21.50;40.90;;;;;;696107;28;917;-91
2022/01/18 00:06:06;;;;;;;;;;;21.50;41.10;;;;;;697791;28;885;-89
2022/01/18 00:06:27;;;;;;;;;;;21.50;41.00;;;;;;699547;28;867;-90
2022/01/18 00:06:51;;;;;;;;;;;21.50;40.90;;;;;;699330;28;790;-90
2022/01/18 00:07:12;;;;;;;;;;;21.50;40.90;;;;;;699460;28;901;-90
2022/01/18 00:07:33;;;;;;;;;;;21.50;41.00;;;;;;698120;28;1258;-91
2022/01/18 00:07:53;;;;;;;;;;;21.50;41.00;;;;;;699504;28;857;-83
2022/01/18 00:08:15;;;;;;;;;;;21.50;41.00;;;;;;699464;28;846;-90
2022/01/18 00:08:36;;;;;;;;;;;21.50;41.00;;;;;;696512;28;944;-90
2022/01/18 00:08:57;;;;;;;;;;;21.50;41.00;;;;;;695893;28;1271;-91
2022/01/18 00:09:21;;;;;;;;;;;21.50;41.00;;;;;;697304;28;918;-92
2022/01/18 00:09:41;;;;;;;;;;;21.50;41.00;;;;;;699339;28;814;-91
2022/01/18 00:10:02;;;;;;;;;;;21.50;40.90;;;;;;699614;28;821;-92
2022/01/18 00:10:25;;;;;;;;;;;21.50;41.00;;;;;;699401;28;928;-92
2022/01/18 00:10:48;;;;;;;;;;;21.50;41.00;;;;;;700301;28;1105;-91
2022/01/18 00:11:08;;;;;;;;;;;21.50;41.00;;;;;;699277;28;857;-91
2022/01/18 00:11:35;;;;;;;;;;;21.50;40.90;;;;;;699549;28;814;-91
2022/01/18 00:12:10;;;;;;;;;;;21.50;40.90;;;;;;699584;28;842;-91
2022/01/18 00:12:54;;;;;;;;;;;21.50;41.00;;;;;;699429;28;916;-89
2022/01/18 00:13:36;;;;;;;;;;;21.50;41.20;;;;;;702199;28;1067;-90
2022/01/18 00:14:01;;;;;;;;;;;21.50;41.20;;;;;;698866;28;1086;-91
2022/01/18 00:14:25;;;;;;;;;;;21.50;41.10;;;;;;699379;28;897;-91
2022/01/18 00:14:55;;;;;;;;;;;21.40;41.00;;;;;;699289;28;827;-91
2022/01/18 00:15:56;;;;;;;;;;;21.50;41.10;;;;;;700102;28;738;-89
2022/01/18 00:17:00;;;;;;;;;;;21.50;41.10;;;;;;702329;28;1066;-90
2022/01/18 00:17:16;;;;;;;;;;;21.40;40.90;;;;;;701148;28;1030;-91
2022/01/18 00:17:42;;;;;;;;;;;21.40;40.90;;;;;;699359;28;1206;-91
2022/01/18 00:18:24;;;;;;;;;;;21.40;41.00;;;;;;699524;28;830;-88
2022/01/18 00:18:49;;;;;;;;;;;21.50;41.00;;;;;;696512;28;1331;-88
2022/01/18 00:19:11;;;;;;;;;;;21.50;41.10;;;;;;696625;28;870;-91
2022/01/18 00:19:34;;;;;;;;;;;21.40;41.00;;;;;;698738;28;829;-90
2022/01/18 00:19:56;;;;;;;;;;;21.40;40.90;;;;;;699382;28;1840;-91
2022/01/18 00:20:21;;;;;;;;;;;21.40;41.10;;;;;;699108;28;1325;-90
2022/01/18 00:22:46;;;;;;;;;;;21.40;41.10;;;;;;693678;28;801;-89
2022/01/18 00:23:08;;;;;;;;;;;21.40;41.00;;;;;;690947;28;1492;-90
2022/01/18 00:23:29;;;;;;;;;;;21.40;41.00;;;;;;690406;28;1373;-89
2022/01/18 00:23:54;;;;;;;;;;;21.40;41.00;;;;;;691071;28;815;-90
2022/01/18 00:24:14;;;;;;;;;;;21.40;41.10;;;;;;691007;28;1120;-89
2022/01/18 00:24:35;;;;;;;;;;;21.40;41.00;;;;;;690973;28;771;-90
2022/01/18 00:24:58;;;;;;;;;;;21.40;41.00;;;;;;692046;28;818;-88
2022/01/18 00:25:19;;;;;;;;;;;21.40;41.20;;;;;;693826;28;893;-91
2022/01/18 00:25:43;;;;;;;;;;;21.40;41.00;;;;;;693751;28;1144;-90
2022/01/18 00:26:05;;;;;;;;;;;21.40;40.90;;;;;;693885;28;845;-86
2022/01/18 00:26:29;;;;;;;;;;;21.40;40.90;;;;;;693891;28;823;-88
2022/01/18 00:26:49;;;;;;;;;;;21.40;41.00;;;;;;693727;28;810;-88
2022/01/18 00:27:13;;;;;;;;;;;21.40;41.10;;;;;;693844;28;803;-90
2022/01/18 00:27:33;;;;;;;;;;;21.40;41.20;;;;;;693875;28;1306;-86
2022/01/18 00:27:54;;;;;;;;;;;21.40;41.30;;;;;;691300;28;1232;-88
2022/01/18 00:28:15;;;;;;;;;;;21.40;41.20;;;;;;688244;28;1305;-89
2022/01/18 00:28:37;;;;;;;;;;;21.40;41.20;;;;;;688228;28;1367;-92
2022/01/18 00:29:03;;;;;;;;;;;21.40;41.10;;;;;;688293;28;791;-89
2022/01/18 00:29:25;;;;;;;;;;;21.40;41.10;;;;;;685830;28;1258;-91
2022/01/18 00:31:49;;;;;;;;;;;21.40;41.30;;;;;;694486;28;822;-91
2022/01/18 00:32:54;;;;;;;;;;;21.40;41.10;;;;;;694414;28;839;-91
2022/01/18 00:33:38;;;;;;;;;;;21.40;41.10;;;;;;694387;28;941;-92
2022/01/18 00:34:37;;;;;;;;;;;21.40;41.30;;;;;;694339;28;1914;-89
2022/01/18 00:34:57;;;;;;;;;;;21.40;41.00;;;;;;694247;28;948;-92
2022/01/18 00:35:18;;;;;;;;;;;21.40;41.10;;;;;;694241;28;807;-93
2022/01/18 00:35:41;;;;;;;;;;;21.40;41.10;;;;;;694406;28;818;-91
2022/01/18 00:36:03;;;;;;;;;;;21.40;41.30;;;;;;694485;28;822;-92
2022/01/18 00:36:35;;;;;;;;;;;21.40;41.10;;;;;;694381;28;865;-88
2022/01/18 00:37:53;;;;;;;;;;;21.40;41.10;;;;;;691646;28;689;-93
2022/01/18 00:38:32;;;;;;;;;;;21.40;41.10;;;;;;691551;28;858;-91
2022/01/18 00:38:52;;;;;;;;;;;21.40;41.30;;;;;;693988;28;779;-91
2022/01/18 00:39:13;;;;;;;;;;;21.30;41.10;;;;;;694234;28;779;-91
2022/01/18 00:39:36;;;;;;;;;;;21.40;41.10;;;;;;694355;28;814;-87
2022/01/18 00:39:56;;;;;;;;;;;21.40;41.20;;;;;;694439;28;896;-92
2022/01/18 00:40:17;;;;;;;;;;;21.40;41.00;;;;;;694209;28;795;-90
2022/01/18 00:40:38;;;;;;;;;;;21.40;41.10;;;;;;694358;28;810;-90
2022/01/18 00:40:58;;;;;;;;;;;21.40;41.00;;;;;;694404;28;889;-93
2022/01/18 00:41:21;;;;;;;;;;;21.40;41.00;;;;;;691523;28;1287;-91
2022/01/18 00:41:41;;;;;;;;;;;21.40;41.20;;;;;;691375;28;1270;-90
2022/01/18 00:42:03;;;;;;;;;;;21.40;41.20;;;;;;691538;28;1355;-91
2022/01/18 00:42:24;;;;;;;;;;;21.40;41.10;;;;;;691545;28;929;-87
2022/01/18 00:42:44;;;;;;;;;;;21.40;41.10;;;;;;691617;28;822;-89
2022/01/18 00:43:05;;;;;;;;;;;21.40;41.00;;;;;;692096;28;878;-93
2022/01/18 00:43:26;;;;;;;;;;;21.30;41.00;;;;;;693790;28;1471;-89
2022/01/18 00:43:46;;;;;;;;;;;21.30;41.10;;;;;;691528;28;744;-89
2022/01/18 00:44:08;;;;;;;;;;;21.40;41.10;;;;;;691408;28;989;-90
2022/01/18 00:44:28;;;;;;;;;;;21.30;41.00;;;;;;691647;28;1298;-86
2022/01/18 00:44:49;;;;;;;;;;;21.30;41.10;;;;;;691309;28;995;-90
2022/01/18 00:45:09;;;;;;;;;;;21.30;41.10;;;;;;691488;28;933;-90
2022/01/18 00:45:30;;;;;;;;;;;21.40;41.10;;;;;;691520;28;862;-93
2022/01/18 00:45:51;;;;;;;;;;;21.30;41.00;;;;;;688603;28;1229;-88
2022/01/18 00:46:12;;;;;;;;;;;21.40;41.00;;;;;;688844;28;775;-90
2022/01/18 00:46:34;;;;;;;;;;;21.30;41.00;;;;;;688906;28;846;-90
2022/01/18 00:46:54;;;;;;;;;;;21.30;41.00;;;;;;689447;28;811;-90
2022/01/18 00:47:15;;;;;;;;;;;21.40;41.10;;;;;;688711;28;835;-90
2022/01/18 00:47:35;;;;;;;;;;;21.30;41.00;;;;;;689261;28;1535;-90
2022/01/18 00:47:56;;;;;;;;;;;21.40;41.00;;;;;;691655;28;834;-90
2022/01/18 00:48:20;;;;;;;;;;;21.30;41.00;;;;;;688562;28;1348;-89
2022/01/18 00:48:41;;;;;;;;;;;21.30;40.90;;;;;;688765;28;933;-86
2022/01/18 00:49:03;;;;;;;;;;;21.40;41.10;;;;;;686171;28;929;-90
2022/01/18 00:49:24;;;;;;;;;;;21.40;41.10;;;;;;689205;28;1284;-87
2022/01/18 00:49:46;;;;;;;;;;;21.40;41.10;;;;;;688639;28;1280;-90
2022/01/18 00:50:08;;;;;;;;;;;21.30;41.10;;;;;;688700;28;1306;-88
2022/01/18 00:50:31;;;;;;;;;;;21.40;41.10;;;;;;689013;28;877;-89
2022/01/18 00:50:53;;;;;;;;;;;21.40;41.10;;;;;;689011;28;847;-90
2022/01/18 00:51:14;;;;;;;;;;;21.40;41.20;;;;;;688797;28;1352;-87
2022/01/18 00:51:38;;;;;;;;;;;21.40;41.20;;;;;;690095;28;1412;-89
2022/01/18 00:52:04;;;;;;;;;;;21.30;41.10;;;;;;689109;28;1252;-90
2022/01/18 00:52:25;;;;;;;;;;;21.40;41.20;;;;;;689017;28;1397;-91
2022/01/18 00:52:50;;;;;;;;;;;21.40;41.20;;;;;;689258;28;813;-88
2022/01/18 00:53:15;;;;;;;;;;;21.30;41.20;;;;;;689046;28;1426;-90
2022/01/18 00:53:37;;;;;;;;;;;21.40;41.30;;;;;;691628;28;830;-90
2022/01/18 00:53:59;;;;;;;;;;;21.40;41.10;;;;;;688836;28;1220;-91
2022/01/18 00:54:28;;;;;;;;;;;21.30;41.20;;;;;;688807;28;811;-91
2022/01/18 00:54:49;;;;;;;;;;;21.30;41.10;;;;;;688765;28;893;-91
2022/01/18 00:55:10;;;;;;;;;;;21.40;41.20;;;;;;691310;28;1044;-89
2022/01/18 00:55:35;;;;;;;;;;;21.40;41.20;;;;;;689016;28;1265;-90
2022/01/18 00:56:19;;;;;;;;;;;21.40;41.20;;;;;;691144;28;1446;-91
2022/01/18 00:56:42;;;;;;;;;;;21.30;41.10;;;;;;691364;28;858;-90
2022/01/18 00:57:03;;;;;;;;;;;21.40;41.20;;;;;;691644;28;894;-91
2022/01/18 00:57:24;;;;;;;;;;;21.40;41.20;;;;;;691533;28;818;-90
2022/01/18 00:57:44;;;;;;;;;;;21.30;41.20;;;;;;695479;28;1123;-91
2022/01/18 00:58:05;;;;;;;;;;;21.40;41.20;;;;;;702712;28;946;-91
2022/01/18 00:58:26;;;;;;;;;;;21.40;41.20;;;;;;699844;28;1291;-90
2022/01/18 00:58:47;;;;;;;;;;;21.30;41.10;;;;;;697096;28;920;-92
2022/01/18 00:59:20;;;;;;;;;;;21.40;41.30;;;;;;696980;28;806;-91
2022/01/18 00:59:41;;;;;;;;;;;21.40;41.20;;;;;;694193;28;1189;-87
2022/01/18 01:00:03;;;;;;;;;;;21.40;41.30;;;;;;694501;28;836;-92
2022/01/18 01:00:24;;;;;;;;;;;21.40;41.20;;;;;;693903;28;1372;-87
2022/01/18 01:00:44;;;;;;;;;;;21.30;41.10;;;;;;696686;28;874;-90
2022/01/18 01:01:05;;;;;;;;;;;21.40;41.10;;;;;;697215;28;826;-90
2022/01/18 01:01:28;;;;;;;;;;;21.30;41.00;;;;;;697816;28;837;-91
2022/01/18 01:01:49;;;;;;;;;;;21.30;41.10;;;;;;699912;28;901;-94
2022/01/18 01:02:09;;;;;;;;;;;21.40;42.10;;;;;;697507;28;1216;-90
2022/01/18 01:02:30;;;;;;;;;;;21.40;41.10;;;;;;697196;28;1203;-91
2022/01/18 01:02:50;;;;;;;;;;;21.40;41.10;;;;;;697031;28;976;-89
2022/01/18 01:03:11;;;;;;;;;;;21.30;41.00;;;;;;697033;28;965;-89
2022/01/18 01:03:31;;;;;;;;;;;21.30;41.00;;;;;;697020;28;889;-90
2022/01/18 01:03:55;;;;;;;;;;;21.40;41.10;;;;;;694496;28;1330;-90
2022/01/18 01:04:17;;;;;;;;;;;21.30;41.10;;;;;;694502;28;1204;-91
2022/01/18 01:04:42;;;;;;;;;;;21.30;41.10;;;;;;697091;28;791;-91
2022/01/18 01:05:03;;;;;;;;;;;21.40;41.00;;;;;;694365;28;1339;-90
2022/01/18 01:05:23;;;;;;;;;;;21.30;41.10;;;;;;691366;28;1204;-91
2022/01/18 01:05:44;;;;;;;;;;;21.30;41.10;;;;;;693132;28;830;-87
2022/01/18 01:06:05;;;;;;;;;;;21.40;41.10;;;;;;695335;28;1204;-90
2022/01/18 01:06:26;;;;;;;;;;;21.40;41.20;;;;;;697206;28;965;-91
2022/01/18 01:06:46;;;;;;;;;;;21.40;41.10;;;;;;697454;28;849;-90
2022/01/18 01:07:07;;;;;;;;;;;21.30;41.10;;;;;;700232;28;830;-91
2022/01/18 01:07:27;;;;;;;;;;;21.40;41.10;;;;;;702702;28;850;-90
2022/01/18 01:07:48;;;;;;;;;;;21.40;41.10;;;;;;699812;28;1312;-91
2022/01/18 01:08:09;;;;;;;;;;;21.30;41.00;;;;;;699802;28;1354;-90
2022/01/18 01:08:29;;;;;;;;;;;21.40;41.10;;;;;;699832;28;1349;-90
2022/01/18 01:08:50;;;;;;;;;;;21.40;41.20;;;;;;699762;28;1200;-90
2022/01/18 01:09:11;;;;;;;;;;;21.40;41.10;;;;;;699545;28;1552;-90
2022/01/18 01:09:33;;;;;;;;;;;21.30;41.10;;;;;;699494;28;1334;-89
2022/01/18 01:09:53;;;;;;;;;;;21.40;41.10;;;;;;697030;28;826;-91
2022/01/18 01:10:14;;;;;;;;;;;21.30;41.00;;;;;;696442;28;932;-89
2022/01/18 01:10:34;;;;;;;;;;;21.30;41.10;;;;;;699727;28;1073;-90
2022/01/18 01:10:55;;;;;;;;;;;21.40;41.10;;;;;;699960;28;826;-91
2022/01/18 01:11:17;;;;;;;;;;;21.30;42.20;;;;;;699362;28;794;-92
2022/01/18 01:11:39;;;;;;;;;;;21.40;41.20;;;;;;694221;28;1255;-91
2022/01/18 01:12:00;;;;;;;;;;;21.40;41.20;;;;;;692220;28;1201;-92
2022/01/18 01:12:23;;;;;;;;;;;21.40;41.10;;;;;;692266;28;854;-91
2022/01/18 01:12:44;;;;;;;;;;;21.40;41.10;;;;;;694340;28;799;-88
2022/01/18 01:13:04;;;;;;;;;;;21.30;41.10;;;;;;694333;28;882;-91
2022/01/18 01:13:27;;;;;;;;;;;21.40;41.20;;;;;;692453;28;1451;-91
2022/01/18 01:13:49;;;;;;;;;;;21.40;41.10;;;;;;692393;28;853;-92
2022/01/18 01:14:45;;;;;;;;;;;21.30;41.20;;;;;;695327;28;783;-92
2022/01/18 01:15:11;;;;;;;;;;;21.30;41.20;;;;;;694195;28;1300;-91
2022/01/18 01:15:36;;;;;;;;;;;21.30;41.20;;;;;;697490;28;1359;-92
2022/01/18 01:16:17;;;;;;;;;;;21.40;41.10;;;;;;699762;28;1416;-92
2022/01/18 01:17:10;;;;;;;;;;;21.30;41.10;;;;;;699777;28;1439;-90
2022/01/18 01:18:30;;;;;;;;;;;21.30;41.10;;;;;;702486;28;1116;-93
2022/01/18 01:36:33;;;;;;;;;;;21.50;41.60;;;;;;696745;28;817;-90
2022/01/18 01:42:14;;;;;;;;;;;21.50;41.50;;;;;;683165;29;622;-92
2022/01/18 01:44:24;;;;;;;;;;;21.50;42.00;;;;;;675140;29;844;-94
2022/01/18 01:44:46;;;;;;;;;;;21.50;41.40;;;;;;672577;29;1240;-91
2022/01/18 01:45:09;;;;;;;;;;;21.50;41.30;;;;;;672967;29;891;-92
2022/01/18 01:45:31;;;;;;;;;;;21.50;41.40;;;;;;672954;29;975;-88
2022/01/18 01:45:53;;;;;;;;;;;21.50;41.30;;;;;;675437;29;1347;-91
2022/01/18 01:46:13;;;;;;;;;;;21.50;41.40;;;;;;675352;29;852;-91
2022/01/18 01:46:36;;;;;;;;;;;21.50;41.30;;;;;;674668;29;1032;-89
2022/01/18 01:46:56;;;;;;;;;;;21.50;41.40;;;;;;680759;29;864;-92
2022/01/18 01:47:20;;;;;;;;;;;21.50;41.40;;;;;;680599;29;1375;-92
2022/01/18 01:47:40;;;;;;;;;;;21.60;41.50;;;;;;680645;29;1025;-92
2022/01/18 01:48:03;;;;;;;;;;;21.50;41.30;;;;;;680866;29;800;-92
2022/01/18 01:48:24;;;;;;;;;;;21.60;41.50;;;;;;681634;29;808;-93
2022/01/18 01:48:51;;;;;;;;;;;21.60;41.40;;;;;;682291;29;883;-91
2022/01/18 01:49:14;;;;;;;;;;;21.60;41.40;;;;;;677997;29;1437;-90
2022/01/18 01:49:34;;;;;;;;;;;21.60;41.40;;;;;;679722;29;1105;-90
2022/01/18 01:49:55;;;;;;;;;;;21.60;41.40;;;;;;680791;29;839;-92
2022/01/18 01:50:19;;;;;;;;;;;21.60;41.40;;;;;;680747;29;852;-91
2022/01/18 01:50:53;;;;;;;;;;;21.60;41.40;;;;;;680589;29;878;-92
2022/01/18 01:51:13;;;;;;;;;;;21.60;41.40;;;;;;680496;29;1395;-93
2022/01/18 01:51:34;;;;;;;;;;;21.60;41.30;;;;;;680694;29;1113;-88
2022/01/18 01:51:55;;;;;;;;;;;21.60;41.30;;;;;;681011;29;1488;-91
2022/01/18 01:52:15;;;;;;;;;;;21.60;41.30;;;;;;681626;29;998;-92
2022/01/18 01:52:36;;;;;;;;;;;21.60;41.30;;;;;;681884;29;772;-91
2022/01/18 01:52:57;;;;;;;;;;;21.60;41.30;;;;;;681865;29;1225;-92
2022/01/18 01:53:18;;;;;;;;;;;21.60;41.30;;;;;;681432;29;1124;-92
2022/01/18 01:53:39;;;;;;;;;;;21.60;41.30;;;;;;679820;29;819;-92
2022/01/18 01:54:01;;;;;;;;;;;21.60;41.30;;;;;;678985;29;1593;-92
2022/01/18 01:54:22;;;;;;;;;;;21.60;41.30;;;;;;680921;29;1291;-92
2022/01/18 01:54:43;;;;;;;;;;;21.60;41.30;;;;;;681325;29;1906;-92
2022/01/18 01:55:03;;;;;;;;;;;21.60;41.30;;;;;;678437;29;887;-93
2022/01/18 01:55:24;;;;;;;;;;;21.60;41.30;;;;;;676014;29;1696;-90
2022/01/18 01:55:45;;;;;;;;;;;21.60;41.30;;;;;;675987;29;1374;-91
2022/01/18 01:56:06;;;;;;;;;;;21.60;41.20;;;;;;677529;29;1278;-92
2022/01/18 01:56:27;;;;;;;;;;;21.50;41.10;;;;;;675478;29;1303;-92
2022/01/18 01:56:48;;;;;;;;;;;21.60;41.20;;;;;;676255;29;1135;-92
2022/01/18 01:57:09;;;;;;;;;;;21.50;41.10;;;;;;678808;29;994;-92
2022/01/18 01:57:30;;;;;;;;;;;21.50;41.10;;;;;;678126;29;1288;-91
2022/01/18 01:57:50;;;;;;;;;;;21.50;41.10;;;;;;678077;29;938;-91
2022/01/18 01:58:11;;;;;;;;;;;21.50;41.10;;;;;;675392;29;1192;-91
2022/01/18 01:58:31;;;;;;;;;;;21.50;41.10;;;;;;676058;29;812;-90
2022/01/18 01:58:52;;;;;;;;;;;21.50;41.20;;;;;;678109;29;899;-92
2022/01/18 01:59:13;;;;;;;;;;;21.50;41.20;;;;;;678198;29;915;-91
2022/01/18 01:59:34;;;;;;;;;;;21.50;41.20;;;;;;680526;29;812;-87
2022/01/18 01:59:57;;;;;;;;;;;21.50;41.20;;;;;;681141;29;760;-90
2022/01/18 02:00:19;;;;;;;;;;;21.50;41.10;;;;;;680572;29;1454;-91
2022/01/18 02:00:43;;;;;;;;;;;21.50;41.10;;;;;;680594;29;1333;-92
2022/01/18 02:01:04;;;;;;;;;;;21.50;41.10;;;;;;679371;29;824;-92
2022/01/18 02:01:25;;;;;;;;;;;21.50;41.10;;;;;;678017;29;1313;-91
2022/01/18 02:01:47;;;;;;;;;;;21.50;41.10;;;;;;678163;29;829;-92
2022/01/18 02:02:08;;;;;;;;;;;21.50;41.00;;;;;;678017;29;820;-92
2022/01/18 02:02:30;;;;;;;;;;;21.50;41.00;;;;;;679059;29;979;-92
2022/01/18 02:02:50;;;;;;;;;;;21.40;40.90;;;;;;680546;29;1330;-92
2022/01/18 02:03:12;;;;;;;;;;;21.50;41.00;;;;;;677878;29;1345;-91
2022/01/18 02:03:33;;;;;;;;;;;21.40;41.00;;;;;;675454;29;1249;-92
2022/01/18 02:03:55;;;;;;;;;;;21.40;40.90;;;;;;675529;29;815;-85
2022/01/18 02:04:16;;;;;;;;;;;21.40;41.00;;;;;;675310;29;1222;-91
2022/01/18 02:04:36;;;;;;;;;;;21.40;41.00;;;;;;675975;29;903;-91
2022/01/18 02:04:57;;;;;;;;;;;21.40;41.00;;;;;;678714;29;923;-91
2022/01/18 02:05:20;;;;;;;;;;;21.40;41.00;;;;;;678502;29;1379;-92
2022/01/18 02:05:41;;;;;;;;;;;21.40;41.00;;;;;;680595;29;824;-91
2022/01/18 02:06:01;;;;;;;;;;;21.40;41.00;;;;;;677449;29;1199;-92
2022/01/18 02:06:23;;;;;;;;;;;21.40;41.00;;;;;;677900;29;1130;-91
2022/01/18 02:06:44;;;;;;;;;;;21.40;40.90;;;;;;678129;29;749;-91
2022/01/18 02:07:04;;;;;;;;;;;21.40;41.00;;;;;;678632;29;1235;-89
2022/01/18 02:07:25;;;;;;;;;;;21.40;41.00;;;;;;680639;29;824;-92
2022/01/18 02:07:45;;;;;;;;;;;21.40;40.90;;;;;;681087;29;824;-92
2022/01/18 02:08:07;;;;;;;;;;;21.40;41.00;;;;;;680261;29;1222;-93
2022/01/18 02:08:28;;;;;;;;;;;21.40;41.00;;;;;;678206;29;548;-91
2022/01/18 02:08:49;;;;;;;;;;;21.30;42.10;;;;;;678350;29;959;-91
2022/01/18 02:09:10;;;;;;;;;;;21.40;41.10;;;;;;680763;29;903;-92
2022/01/18 02:09:30;;;;;;;;;;;21.30;41.00;;;;;;680719;29;882;-91
2022/01/18 02:09:51;;;;;;;;;;;21.30;41.00;;;;;;678433;29;1333;-92
2022/01/18 02:10:11;;;;;;;;;;;21.40;41.00;;;;;;679759;29;1502;-92
2022/01/18 02:10:35;;;;;;;;;;;21.30;41.00;;;;;;680818;29;893;-92
2022/01/18 02:10:56;;;;;;;;;;;21.30;40.90;;;;;;680870;29;888;-92
2022/01/18 02:11:17;;;;;;;;;;;21.40;41.10;;;;;;680619;29;840;-92
2022/01/18 02:11:37;;;;;;;;;;;21.40;41.10;;;;;;680623;29;840;-93
2022/01/18 02:12:00;;;;;;;;;;;21.40;41.10;;;;;;678289;29;1289;-92
2022/01/18 02:12:20;;;;;;;;;;;21.30;41.10;;;;;;678035;29;812;-92
2022/01/18 02:12:41;;;;;;;;;;;21.30;41.10;;;;;;678070;29;824;-92
2022/01/18 02:13:02;;;;;;;;;;;21.30;41.10;;;;;;675555;29;1267;-92
2022/01/18 02:13:23;;;;;;;;;;;21.30;41.00;;;;;;677164;29;1014;-90
2022/01/18 02:13:43;;;;;;;;;;;21.30;41.10;;;;;;680497;29;1313;-92
2022/01/18 02:14:06;;;;;;;;;;;21.30;41.10;;;;;;680591;29;832;-89
2022/01/18 02:14:28;;;;;;;;;;;21.30;41.00;;;;;;678276;29;872;-92
2022/01/18 02:14:56;;;;;;;;;;;21.30;41.00;;;;;;676171;29;1903;-91
2022/01/18 02:15:18;;;;;;;;;;;21.30;41.10;;;;;;683901;28;1432;-91
2022/01/18 02:15:47;;;;;;;;;;;21.30;41.10;;;;;;693330;28;871;-92
2022/01/18 02:21:51;;;;;;;;;;;21.30;41.10;;;;;;702624;28;661;-92
2022/01/18 02:22:12;;;;;;;;;;;21.30;41.20;;;;;;702557;28;811;-92
2022/01/18 02:22:32;;;;;;;;;;;21.30;41.10;;;;;;699702;28;1251;-91
2022/01/18 02:22:53;;;;;;;;;;;21.30;41.20;;;;;;699503;28;1330;-91
2022/01/18 02:23:14;;;;;;;;;;;21.30;41.10;;;;;;699666;28;925;-89
2022/01/18 02:23:36;;;;;;;;;;;21.30;41.20;;;;;;699672;28;779;-91
2022/01/18 02:23:56;;;;;;;;;;;21.20;41.20;;;;;;696969;28;1463;-93
2022/01/18 02:24:18;;;;;;;;;;;21.30;41.20;;;;;;694652;28;1351;-93
2022/01/18 02:24:38;;;;;;;;;;;21.30;41.20;;;;;;696834;28;842;-92
2022/01/18 02:24:59;;;;;;;;;;;21.30;41.30;;;;;;696968;28;853;-92
2022/01/18 02:25:20;;;;;;;;;;;21.30;41.30;;;;;;694127;28;902;-92
2022/01/18 02:25:41;;;;;;;;;;;21.30;41.30;;;;;;694341;28;1509;-93
2022/01/18 02:26:01;;;;;;;;;;;21.30;41.30;;;;;;697355;28;1212;-94
2022/01/18 02:26:22;;;;;;;;;;;21.30;41.20;;;;;;699615;28;803;-92
2022/01/18 02:26:42;;;;;;;;;;;21.20;41.20;;;;;;699662;28;787;-92
2022/01/18 02:27:03;;;;;;;;;;;21.30;41.20;;;;;;699989;28;985;-92
2022/01/18 02:27:24;;;;;;;;;;;21.30;41.20;;;;;;702111;28;826;-87
2022/01/18 02:27:45;;;;;;;;;;;21.30;41.20;;;;;;697169;28;1362;-92
2022/01/18 02:28:05;;;;;;;;;;;21.20;41.20;;;;;;696644;28;1062;-92
2022/01/18 02:28:26;;;;;;;;;;;21.20;41.10;;;;;;696837;28;831;-92
2022/01/18 02:28:47;;;;;;;;;;;21.30;41.30;;;;;;694103;28;1234;-91
2022/01/18 02:29:08;;;;;;;;;;;21.20;41.20;;;;;;693957;28;1339;-92
2022/01/18 02:29:29;;;;;;;;;;;21.30;41.20;;;;;;694501;28;897;-91
2022/01/18 02:29:49;;;;;;;;;;;21.20;41.20;;;;;;693911;28;836;-92
2022/01/18 02:30:10;;;;;;;;;;;21.20;42.20;;;;;;694071;28;823;-92
2022/01/18 02:30:31;;;;;;;;;;;21.20;41.20;;;;;;694395;28;1424;-92
2022/01/18 02:30:52;;;;;;;;;;;21.20;41.20;;;;;;696901;28;837;-91
2022/01/18 02:31:12;;;;;;;;;;;21.20;41.20;;;;;;694391;28;1263;-91
2022/01/18 02:31:33;;;;;;;;;;;21.30;41.20;;;;;;697315;28;815;-91
2022/01/18 02:31:55;;;;;;;;;;;21.20;41.20;;;;;;699702;28;846;-90
2022/01/18 02:32:15;;;;;;;;;;;21.20;41.20;;;;;;696692;28;1259;-91
2022/01/18 02:32:36;;;;;;;;;;;21.20;41.20;;;;;;696818;28;1319;-91
2022/01/18 02:32:57;;;;;;;;;;;21.20;41.20;;;;;;694563;28;1180;-91
2022/01/18 02:33:18;;;;;;;;;;;21.30;41.30;;;;;;693965;28;811;-91
2022/01/18 02:33:41;;;;;;;;;;;21.20;41.10;;;;;;691274;28;1366;-91
2022/01/18 02:34:03;;;;;;;;;;;21.30;41.30;;;;;;691282;28;1178;-91
2022/01/18 02:34:24;;;;;;;;;;;21.20;41.20;;;;;;692328;28;799;-91
2022/01/18 02:34:45;;;;;;;;;;;21.20;41.10;;;;;;694969;28;1969;-91
2022/01/18 02:35:06;;;;;;;;;;;21.20;41.10;;;;;;694979;28;1122;-90
2022/01/18 02:35:26;;;;;;;;;;;21.20;41.10;;;;;;694998;28;1255;-91
2022/01/18 02:35:47;;;;;;;;;;;21.20;41.20;;;;;;696921;28;826;-91
2022/01/18 02:36:09;;;;;;;;;;;21.20;41.20;;;;;;693942;28;1193;-91
2022/01/18 02:36:30;;;;;;;;;;;21.20;41.10;;;;;;694094;28;799;-91
2022/01/18 02:36:53;;;;;;;;;;;21.20;41.20;;;;;;694536;28;1204;-90
2022/01/18 02:37:14;;;;;;;;;;;21.20;41.10;;;;;;696836;28;787;-90
2022/01/18 02:37:35;;;;;;;;;;;21.20;41.10;;;;;;693939;28;1252;-89
2022/01/18 02:37:55;;;;;;;;;;;21.20;41.20;;;;;;694879;28;1320;-90
2022/01/18 02:38:16;;;;;;;;;;;21.20;41.20;;;;;;696807;28;1311;-90
2022/01/18 02:38:37;;;;;;;;;;;21.20;41.20;;;;;;697467;28;1360;-90
2022/01/18 02:38:57;;;;;;;;;;;21.20;41.10;;;;;;696440;28;1176;-90
2022/01/18 02:39:19;;;;;;;;;;;21.20;41.10;;;;;;697150;28;933;-90
2022/01/18 02:39:42;;;;;;;;;;;21.20;41.20;;;;;;699530;28;1319;-91
2022/01/18 02:40:02;;;;;;;;;;;21.20;41.20;;;;;;696811;28;1360;-90
2022/01/18 02:40:24;;;;;;;;;;;21.20;41.20;;;;;;693398;28;1335;-91
2022/01/18 02:40:44;;;;;;;;;;;21.20;41.20;;;;;;694908;28;806;-89
2022/01/18 02:41:07;;;;;;;;;;;21.20;42.30;;;;;;694035;28;822;-91
2022/01/18 02:41:32;;;;;;;;;;;21.20;41.20;;;;;;694217;28;869;-91
2022/01/18 02:41:55;;;;;;;;;;;21.20;41.20;;;;;;695341;28;845;-90
2022/01/18 02:42:20;;;;;;;;;;;21.20;41.10;;;;;;695356;28;1503;-90
2022/01/18 02:42:44;;;;;;;;;;;21.20;41.10;;;;;;694033;28;1376;-90
2022/01/18 02:43:50;;;;;;;;;;;21.20;41.10;;;;;;696870;28;609;-90
2022/01/18 02:44:12;;;;;;;;;;;21.20;41.20;;;;;;698775;28;877;-91
2022/01/18 02:44:33;;;;;;;;;;;21.20;41.10;;;;;;698185;28;882;-90
2022/01/18 02:44:54;;;;;;;;;;;21.20;41.10;;;;;;699400;28;1407;-91
2022/01/18 02:45:14;;;;;;;;;;;21.20;41.20;;;;;;699557;28;806;-89
2022/01/18 02:45:35;;;;;;;;;;;21.20;41.20;;;;;;696650;28;1196;-90
2022/01/18 02:45:56;;;;;;;;;;;21.20;41.20;;;;;;696899;28;877;-90
2022/01/18 02:46:17;;;;;;;;;;;21.20;41.10;;;;;;697275;28;799;-91
2022/01/18 02:46:38;;;;;;;;;;;21.20;41.20;;;;;;699566;28;968;-90
2022/01/18 02:46:59;;;;;;;;;;;21.20;41.20;;;;;;699546;28;864;-90
2022/01/18 02:47:20;;;;;;;;;;;21.20;41.20;;;;;;699937;28;888;-90
2022/01/18 02:47:41;;;;;;;;;;;21.20;41.20;;;;;;702487;28;838;-90
2022/01/18 02:48:02;;;;;;;;;;;21.20;41.20;;;;;;699553;28;1208;-93
2022/01/18 02:48:23;;;;;;;;;;;21.20;41.20;;;;;;699539;28;782;-92
2022/01/18 02:48:44;;;;;;;;;;;21.20;41.20;;;;;;699555;28;896;-91
2022/01/18 02:49:05;;;;;;;;;;;21.20;41.20;;;;;;696728;28;1350;-89
2022/01/18 02:49:26;;;;;;;;;;;21.20;41.20;;;;;;696731;28;806;-91
2022/01/18 02:49:47;;;;;;;;;;;21.20;41.30;;;;;;697334;28;798;-91
2022/01/18 02:50:08;;;;;;;;;;;21.20;41.30;;;;;;699521;28;826;-92
2022/01/18 02:50:29;;;;;;;;;;;21.20;41.30;;;;;;699671;28;842;-91
2022/01/18 02:50:49;;;;;;;;;;;21.20;41.30;;;;;;700088;28;774;-91
2022/01/18 02:51:10;;;;;;;;;;;21.20;41.20;;;;;;702424;28;924;-91
2022/01/18 02:51:30;;;;;;;;;;;21.20;41.20;;;;;;702450;28;766;-91
2022/01/18 02:51:51;;;;;;;;;;;21.20;41.20;;;;;;702524;28;826;-90
2022/01/18 02:52:12;;;;;;;;;;;21.20;41.20;;;;;;702425;28;837;-91
2022/01/18 02:52:35;;;;;;;;;;;21.20;41.20;;;;;;702570;28;805;-91
2022/01/18 02:52:55;;;;;;;;;;;21.20;41.20;;;;;;702468;28;806;-91
2022/01/18 02:53:18;;;;;;;;;;;21.20;41.20;;;;;;699431;28;1223;-91
2022/01/18 02:53:52;;;;;;;;;;;21.20;42.30;;;;;;696582;28;1269;-92
2022/01/18 02:54:14;;;;;;;;;;;21.20;41.20;;;;;;696708;28;830;-91
2022/01/18 02:54:35;;;;;;;;;;;21.20;41.20;;;;;;696718;28;1897;-92